sensor_id;sensor_type;location;lat;lon;timestamp;pressure;altitude;pressure_sealevel;temperature;humidity
79150;BME280;68563;45.644;13.782;2023-08-24T00:00:37;100929.81;;;39.69;27.47
79150;BME280;68563;45.644;13.782;2023-08-24T00:03:03;100925.63;;;41.12;24.84
79150;BME280;68563;45.644;13.782;2023-08-24T00:05:28;100925.59;;;39.53;26.91
79150;BME280;68563;45.644;13.782;2023-08-24T00:07:54;100932.38;;;38.17;29.35
79150;BME280;68563;45.644;13.782;2023-08-24T00:10:19;100928.13;;;39.61;27.28
79150;BME280;68563;45.644;13.782;2023-08-24T00:12:45;100926.13;;;41.35;24.35
79150;BME280;68563;45.644;13.782;2023-08-24T00:15:10;100930.19;;;39.66;26.87
79150;BME280;68563;45.644;13.782;2023-08-24T00:17:37;100926.13;;;38.16;28.86
79150;BME280;68563;45.644;13.782;2023-08-24T00:20:05;100920.25;;;39.04;27.84
79150;BME280;68563;45.644;13.782;2023-08-24T00:22:33;100922.69;;;40.35;26.03
79150;BME280;68563;45.644;13.782;2023-08-24T00:24:58;100924.44;;;39.20;27.35
79150;BME280;68563;45.644;13.782;2023-08-24T00:27:24;100922.75;;;37.64;29.01
79150;BME280;68563;45.644;13.782;2023-08-24T00:29:50;100922.63;;;39.28;27.20
79150;BME280;68563;45.644;13.782;2023-08-24T00:32:15;100926.22;;;40.69;24.94
79150;BME280;68563;45.644;13.782;2023-08-24T00:34:40;100922.72;;;39.68;26.08
79150;BME280;68563;45.644;13.782;2023-08-24T00:37:06;100918.44;;;38.41;27.99
79150;BME280;68563;45.644;13.782;2023-08-24T00:39:31;100922.72;;;38.64;27.86
79150;BME280;68563;45.644;13.782;2023-08-24T00:41:56;100927.50;;;40.46;25.47
79150;BME280;68563;45.644;13.782;2023-08-24T00:44:22;100920.22;;;39.73;26.20
79150;BME280;68563;45.644;13.782;2023-08-24T00:46:47;100917.97;;;38.09;27.98
79150;BME280;68563;45.644;13.782;2023-08-24T00:49:13;100917.72;;;39.03;26.93
79150;BME280;68563;45.644;13.782;2023-08-24T00:51:39;100913.81;;;40.87;24.10
79150;BME280;68563;45.644;13.782;2023-08-24T00:54:05;100910.81;;;40.09;25.17
79150;BME280;68563;45.644;13.782;2023-08-24T00:56:30;100911.50;;;38.32;27.58
79150;BME280;68563;45.644;13.782;2023-08-24T00:58:57;100909.19;;;38.29;28.33
79150;BME280;68563;45.644;13.782;2023-08-24T01:01:22;100897.28;;;40.23;25.01
79150;BME280;68563;45.644;13.782;2023-08-24T01:03:49;100894.38;;;39.91;25.14
79150;BME280;68563;45.644;13.782;2023-08-24T01:06:15;100899.34;;;38.21;27.67
79150;BME280;68563;45.644;13.782;2023-08-24T01:08:40;100897.81;;;38.12;28.09
79150;BME280;68563;45.644;13.782;2023-08-24T01:13:59;100896.41;;;39.62;25.39
79150;BME280;68563;45.644;13.782;2023-08-24T01:16:31;100897.66;;;38.20;27.34
79150;BME280;68563;45.644;13.782;2023-08-24T01:18:57;100904.44;;;38.09;28.02
79150;BME280;68563;45.644;13.782;2023-08-24T01:21:26;100901.66;;;39.70;24.94
79150;BME280;68563;45.644;13.782;2023-08-24T01:24:12;100898.63;;;39.24;25.89
79150;BME280;68563;45.644;13.782;2023-08-24T01:26:40;100893.69;;;37.66;27.99
79150;BME280;68563;45.644;13.782;2023-08-24T01:29:07;100900.56;;;38.47;27.31
79150;BME280;68563;45.644;13.782;2023-08-24T01:31:32;100898.97;;;40.17;24.39
79150;BME280;68563;45.644;13.782;2023-08-24T01:33:58;100901.00;;;39.61;24.77
79150;BME280;68563;45.644;13.782;2023-08-24T01:36:23;100899.44;;;38.06;27.49
79150;BME280;68563;45.644;13.782;2023-08-24T01:39:05;100900.22;;;38.57;26.51
79150;BME280;68563;45.644;13.782;2023-08-24T01:41:35;100895.75;;;40.47;24.16
79150;BME280;68563;45.644;13.782;2023-08-24T01:44:04;100890.41;;;39.73;24.45
79150;BME280;68563;45.644;13.782;2023-08-24T01:46:33;100895.78;;;37.92;26.69
79150;BME280;68563;45.644;13.782;2023-08-24T01:48:59;100893.38;;;38.68;25.69
79150;BME280;68563;45.644;13.782;2023-08-24T01:51:25;100896.38;;;40.49;23.75
79150;BME280;68563;45.644;13.782;2023-08-24T01:53:52;100893.72;;;39.88;23.96
79150;BME280;68563;45.644;13.782;2023-08-24T01:56:18;100894.94;;;38.20;26.20
79150;BME280;68563;45.644;13.782;2023-08-24T01:58:43;100894.72;;;39.40;24.69
79150;BME280;68563;45.644;13.782;2023-08-24T02:01:09;100888.41;;;40.54;23.61
79150;BME280;68563;45.644;13.782;2023-08-24T02:03:35;100888.94;;;40.04;23.65
79150;BME280;68563;45.644;13.782;2023-08-24T02:06:01;100890.84;;;38.24;25.92
79150;BME280;68563;45.644;13.782;2023-08-24T02:08:26;100882.41;;;38.34;26.17
79150;BME280;68563;45.644;13.782;2023-08-24T02:10:51;100889.13;;;40.29;23.50
79150;BME280;68563;45.644;13.782;2023-08-24T02:13:17;100891.22;;;40.34;23.27
79150;BME280;68563;45.644;13.782;2023-08-24T02:15:42;100889.56;;;38.55;25.57
79150;BME280;68563;45.644;13.782;2023-08-24T02:18:08;100885.19;;;37.91;26.74
79150;BME280;68563;45.644;13.782;2023-08-24T02:20:37;100884.78;;;40.01;23.95
79150;BME280;68563;45.644;13.782;2023-08-24T02:23:03;100881.44;;;40.13;23.85
79150;BME280;68563;45.644;13.782;2023-08-24T02:25:29;100882.88;;;38.16;25.71
79150;BME280;68563;45.644;13.782;2023-08-24T02:27:54;100883.38;;;37.55;26.99
79150;BME280;68563;45.644;13.782;2023-08-24T02:30:20;100884.72;;;39.48;24.55
79150;BME280;68563;45.644;13.782;2023-08-24T02:32:45;100888.06;;;40.37;23.23
79150;BME280;68563;45.644;13.782;2023-08-24T02:35:11;100885.16;;;38.47;24.99
79150;BME280;68563;45.644;13.782;2023-08-24T02:37:36;100876.44;;;37.45;26.65
79150;BME280;68563;45.644;13.782;2023-08-24T02:40:01;100873.88;;;39.41;23.72
79150;BME280;68563;45.644;13.782;2023-08-24T02:42:30;100882.66;;;40.96;22.23
79150;BME280;68563;45.644;13.782;2023-08-24T02:44:56;100872.25;;;38.85;24.48
79150;BME280;68563;45.644;13.782;2023-08-24T02:47:21;100879.78;;;37.47;26.42
79150;BME280;68563;45.644;13.782;2023-08-24T02:49:46;100868.88;;;39.45;23.86
79150;BME280;68563;45.644;13.782;2023-08-24T02:52:12;100876.53;;;41.14;21.27
79150;BME280;68563;45.644;13.782;2023-08-24T02:54:37;100861.75;;;39.23;23.74
79150;BME280;68563;45.644;13.782;2023-08-24T02:57:02;100865.44;;;37.68;25.47
79150;BME280;68563;45.644;13.782;2023-08-24T02:59:28;100864.09;;;39.33;23.78
79150;BME280;68563;45.644;13.782;2023-08-24T03:01:54;100871.66;;;41.23;21.26
79150;BME280;68563;45.644;13.782;2023-08-24T03:04:19;100864.91;;;39.34;23.21
79150;BME280;68563;45.644;13.782;2023-08-24T03:06:44;100858.59;;;37.73;25.60
79150;BME280;68563;45.644;13.782;2023-08-24T03:09:10;100854.97;;;38.79;24.85
79150;BME280;68563;45.644;13.782;2023-08-24T03:11:35;100863.28;;;39.80;23.32
79150;BME280;68563;45.644;13.782;2023-08-24T03:14:01;100869.59;;;38.50;24.95
79150;BME280;68563;45.644;13.782;2023-08-24T03:16:26;100873.47;;;37.40;26.29
79150;BME280;68563;45.644;13.782;2023-08-24T03:18:51;100868.28;;;38.39;24.92
79150;BME280;68563;45.644;13.782;2023-08-24T03:21:17;100865.09;;;40.40;22.41
79150;BME280;68563;45.644;13.782;2023-08-24T03:23:42;100868.56;;;39.13;23.61
79150;BME280;68563;45.644;13.782;2023-08-24T03:26:07;100867.47;;;37.66;25.33
79150;BME280;68563;45.644;13.782;2023-08-24T03:28:33;100873.97;;;38.57;24.44
79150;BME280;68563;45.644;13.782;2023-08-24T03:31:00;100872.03;;;40.22;22.52
79150;BME280;68563;45.644;13.782;2023-08-24T03:33:25;100873.09;;;39.67;22.94
79150;BME280;68563;45.644;13.782;2023-08-24T03:35:53;100878.50;;;37.87;25.57
79150;BME280;68563;45.644;13.782;2023-08-24T03:38:18;100873.88;;;38.37;25.11
79150;BME280;68563;45.644;13.782;2023-08-24T03:40:44;100881.00;;;40.02;22.78
79150;BME280;68563;45.644;13.782;2023-08-24T03:43:09;100872.00;;;39.41;23.81
79150;BME280;68563;45.644;13.782;2023-08-24T03:45:34;100877.00;;;37.84;25.42
79150;BME280;68563;45.644;13.782;2023-08-24T03:48:00;100878.03;;;37.61;26.16
79150;BME280;68563;45.644;13.782;2023-08-24T03:50:25;100878.38;;;39.07;24.24
79150;BME280;68563;45.644;13.782;2023-08-24T03:52:51;100881.09;;;39.07;24.04
79150;BME280;68563;45.644;13.782;2023-08-24T03:55:19;100875.22;;;37.48;26.23
79150;BME280;68563;45.644;13.782;2023-08-24T03:57:44;100885.06;;;37.19;26.71
79150;BME280;68563;45.644;13.782;2023-08-24T04:00:10;100876.09;;;38.69;24.83
79150;BME280;68563;45.644;13.782;2023-08-24T04:02:38;100879.50;;;39.33;23.65
79150;BME280;68563;45.644;13.782;2023-08-24T04:05:03;100875.63;;;37.30;26.17
79150;BME280;68563;45.644;13.782;2023-08-24T04:07:29;100878.59;;;36.83;27.52
79150;BME280;68563;45.644;13.782;2023-08-24T04:09:54;100878.72;;;38.90;24.55
79150;BME280;68563;45.644;13.782;2023-08-24T04:12:20;100884.53;;;39.56;23.49
79150;BME280;68563;45.644;13.782;2023-08-24T04:14:45;100882.13;;;37.79;25.63
79150;BME280;68563;45.644;13.782;2023-08-24T04:17:10;100879.44;;;36.84;27.07
79150;BME280;68563;45.644;13.782;2023-08-24T04:19:37;100879.50;;;39.46;23.07
79150;BME280;68563;45.644;13.782;2023-08-24T04:22:03;100872.25;;;40.00;22.62
79150;BME280;68563;45.644;13.782;2023-08-24T04:24:28;100881.31;;;38.00;25.16
79150;BME280;68563;45.644;13.782;2023-08-24T04:26:54;100883.59;;;37.01;26.83
79150;BME280;68563;45.644;13.782;2023-08-24T04:29:19;100879.31;;;38.44;25.67
79150;BME280;68563;45.644;13.782;2023-08-24T04:31:44;100876.81;;;39.66;23.99
79150;BME280;68563;45.644;13.782;2023-08-24T04:34:10;100887.44;;;37.87;26.08
79150;BME280;68563;45.644;13.782;2023-08-24T04:36:36;100888.69;;;36.45;27.42
79150;BME280;68563;45.644;13.782;2023-08-24T04:39:02;100886.88;;;37.98;25.77
79150;BME280;68563;45.644;13.782;2023-08-24T04:41:27;100891.91;;;39.14;24.36
79150;BME280;68563;45.644;13.782;2023-08-24T04:43:53;100883.47;;;37.83;25.87
79150;BME280;68563;45.644;13.782;2023-08-24T04:46:19;100896.38;;;38.44;25.72
79150;BME280;68563;45.644;13.782;2023-08-24T04:48:44;100906.69;;;40.92;22.43
79150;BME280;68563;45.644;13.782;2023-08-24T04:51:09;100905.44;;;42.41;20.65
79150;BME280;68563;45.644;13.782;2023-08-24T04:53:35;100907.19;;;43.03;20.05
79150;BME280;68563;45.644;13.782;2023-08-24T04:56:00;100908.56;;;43.55;19.93
79150;BME280;68563;45.644;13.782;2023-08-24T04:58:25;100918.22;;;43.93;19.73
79150;BME280;68563;45.644;13.782;2023-08-24T05:00:51;100915.97;;;44.26;19.31
79150;BME280;68563;45.644;13.782;2023-08-24T05:03:17;100911.59;;;44.37;18.92
79150;BME280;68563;45.644;13.782;2023-08-24T05:05:42;100913.47;;;44.48;19.22
79150;BME280;68563;45.644;13.782;2023-08-24T05:08:08;100909.06;;;44.47;19.17
79150;BME280;68563;45.644;13.782;2023-08-24T05:10:36;100908.97;;;44.18;19.71
79150;BME280;68563;45.644;13.782;2023-08-24T05:13:02;100914.53;;;44.47;19.23
79150;BME280;68563;45.644;13.782;2023-08-24T05:15:28;100907.13;;;44.59;19.00
79150;BME280;68563;45.644;13.782;2023-08-24T05:17:54;100909.06;;;44.59;19.10
79150;BME280;68563;45.644;13.782;2023-08-24T05:20:27;100904.31;;;44.54;18.96
79150;BME280;68563;45.644;13.782;2023-08-24T05:22:53;100904.47;;;45.17;18.18
79150;BME280;68563;45.644;13.782;2023-08-24T05:25:22;100911.75;;;44.83;18.89
79150;BME280;68563;45.644;13.782;2023-08-24T05:27:47;100906.03;;;44.84;19.19
79150;BME280;68563;45.644;13.782;2023-08-24T05:30:13;100912.56;;;45.41;18.46
79150;BME280;68563;45.644;13.782;2023-08-24T05:32:39;100914.72;;;45.56;18.37
79150;BME280;68563;45.644;13.782;2023-08-24T05:35:05;100910.84;;;45.69;18.03
79150;BME280;68563;45.644;13.782;2023-08-24T05:37:31;100921.78;;;45.69;18.38
79150;BME280;68563;45.644;13.782;2023-08-24T05:39:57;100915.66;;;45.62;18.21
79150;BME280;68563;45.644;13.782;2023-08-24T05:42:22;100911.63;;;45.86;17.85
79150;BME280;68563;45.644;13.782;2023-08-24T05:44:48;100921.94;;;45.96;17.83
79150;BME280;68563;45.644;13.782;2023-08-24T05:47:13;100913.69;;;46.13;17.76
79150;BME280;68563;45.644;13.782;2023-08-24T05:49:38;100920.88;;;46.19;17.67
79150;BME280;68563;45.644;13.782;2023-08-24T05:52:04;100915.44;;;46.02;18.09
79150;BME280;68563;45.644;13.782;2023-08-24T05:54:29;100915.97;;;46.39;17.65
79150;BME280;68563;45.644;13.782;2023-08-24T05:56:55;100920.41;;;46.23;17.62
79150;BME280;68563;45.644;13.782;2023-08-24T05:59:20;100923.59;;;45.80;18.00
79150;BME280;68563;45.644;13.782;2023-08-24T06:01:46;100924.50;;;46.03;17.87
79150;BME280;68563;45.644;13.782;2023-08-24T06:04:11;100918.38;;;43.98;19.97
79150;BME280;68563;45.644;13.782;2023-08-24T06:06:37;100917.38;;;42.15;22.18
79150;BME280;68563;45.644;13.782;2023-08-24T06:09:03;100929.13;;;41.20;23.18
79150;BME280;68563;45.644;13.782;2023-08-24T06:11:32;100920.91;;;43.27;20.94
79150;BME280;68563;45.644;13.782;2023-08-24T06:13:58;100929.38;;;42.33;22.05
79150;BME280;68563;45.644;13.782;2023-08-24T06:16:24;100929.88;;;40.95;23.30
79150;BME280;68563;45.644;13.782;2023-08-24T06:18:49;100918.63;;;41.30;23.40
79150;BME280;68563;45.644;13.782;2023-08-24T06:21:16;100922.75;;;43.33;20.41
79150;BME280;68563;45.644;13.782;2023-08-24T06:23:41;100933.69;;;42.59;20.38
79150;BME280;68563;45.644;13.782;2023-08-24T06:26:06;100940.00;;;41.20;22.54
79150;BME280;68563;45.644;13.782;2023-08-24T06:28:32;100935.53;;;41.32;22.58
79150;BME280;68563;45.644;13.782;2023-08-24T06:30:57;100933.88;;;43.44;20.20
79150;BME280;68563;45.644;13.782;2023-08-24T06:33:28;100935.75;;;42.82;21.13
79150;BME280;68563;45.644;13.782;2023-08-24T06:35:56;100935.13;;;41.28;23.08
79150;BME280;68563;45.644;13.782;2023-08-24T06:38:21;100937.28;;;41.20;23.54
79150;BME280;68563;45.644;13.782;2023-08-24T06:40:47;100933.75;;;43.08;21.29
79150;BME280;68563;45.644;13.782;2023-08-24T06:43:12;100940.56;;;42.99;21.05
79150;BME280;68563;45.644;13.782;2023-08-24T06:45:37;100938.53;;;41.62;22.98
79150;BME280;68563;45.644;13.782;2023-08-24T06:48:03;100931.75;;;42.04;23.11
79150;BME280;68563;45.644;13.782;2023-08-24T06:50:29;100940.88;;;43.94;20.82
79150;BME280;68563;45.644;13.782;2023-08-24T06:52:54;100941.38;;;44.14;19.75
79150;BME280;68563;45.644;13.782;2023-08-24T06:55:19;100938.09;;;42.16;22.54
79150;BME280;68563;45.644;13.782;2023-08-24T06:57:48;100940.97;;;42.47;21.92
79150;BME280;68563;45.644;13.782;2023-08-24T07:00:14;100940.06;;;44.53;19.83
79150;BME280;68563;45.644;13.782;2023-08-24T07:02:40;100941.09;;;44.64;19.61
79150;BME280;68563;45.644;13.782;2023-08-24T07:05:05;100941.41;;;42.62;22.09
79150;BME280;68563;45.644;13.782;2023-08-24T07:07:33;100932.28;;;42.75;22.26
79150;BME280;68563;45.644;13.782;2023-08-24T07:09:59;100940.31;;;44.92;19.70
79150;BME280;68563;45.644;13.782;2023-08-24T07:12:24;100931.84;;;45.51;18.42
79150;BME280;68563;45.644;13.782;2023-08-24T07:14:50;100944.72;;;43.50;20.57
79150;BME280;68563;45.644;13.782;2023-08-24T07:17:15;100935.56;;;42.96;21.86
79150;BME280;68563;45.644;13.782;2023-08-24T07:19:40;100941.56;;;44.72;19.41
79150;BME280;68563;45.644;13.782;2023-08-24T07:22:06;100930.31;;;45.72;18.80
79150;BME280;68563;45.644;13.782;2023-08-24T07:24:31;100928.75;;;43.66;20.88
79150;BME280;68563;45.644;13.782;2023-08-24T07:26:58;100930.22;;;42.89;22.38
79150;BME280;68563;45.644;13.782;2023-08-24T07:29:24;100935.50;;;44.82;19.67
79150;BME280;68563;45.644;13.782;2023-08-24T07:31:49;100935.16;;;46.22;18.57
79150;BME280;68563;45.644;13.782;2023-08-24T07:34:14;100930.09;;;44.11;19.99
79150;BME280;68563;45.644;13.782;2023-08-24T07:36:41;100929.59;;;43.06;21.66
79150;BME280;68563;45.644;13.782;2023-08-24T07:39:07;100933.66;;;44.47;20.10
79150;BME280;68563;45.644;13.782;2023-08-24T07:41:33;100944.66;;;46.14;18.25
79150;BME280;68563;45.644;13.782;2023-08-24T07:43:58;100930.22;;;44.40;19.58
79150;BME280;68563;45.644;13.782;2023-08-24T07:46:24;100937.13;;;43.22;20.64
79150;BME280;68563;45.644;13.782;2023-08-24T07:48:50;100940.44;;;45.26;17.54
79150;BME280;68563;45.644;13.782;2023-08-24T07:51:15;100943.03;;;46.35;16.30
79150;BME280;68563;45.644;13.782;2023-08-24T07:53:40;100932.13;;;44.92;17.25
79150;BME280;68563;45.644;13.782;2023-08-24T07:56:06;100943.75;;;43.45;19.07
79150;BME280;68563;45.644;13.782;2023-08-24T07:58:32;100945.66;;;44.99;18.21
79150;BME280;68563;45.644;13.782;2023-08-24T08:00:58;100941.25;;;46.46;17.02
79150;BME280;68563;45.644;13.782;2023-08-24T08:03:24;100949.28;;;45.62;17.90
79150;BME280;68563;45.644;13.782;2023-08-24T08:05:49;100942.97;;;43.68;20.02
79150;BME280;68563;45.644;13.782;2023-08-24T08:08:15;100952.78;;;44.23;19.74
79150;BME280;68563;45.644;13.782;2023-08-24T08:10:41;100945.75;;;45.33;19.12
79150;BME280;68563;45.644;13.782;2023-08-24T08:13:08;100959.84;;;44.84;19.82
79150;BME280;68563;45.644;13.782;2023-08-24T08:15:33;100953.03;;;43.07;22.32
79150;BME280;68563;45.644;13.782;2023-08-24T08:17:59;100950.78;;;43.22;23.09
79150;BME280;68563;45.644;13.782;2023-08-24T08:20:24;100960.47;;;44.62;22.47
79150;BME280;68563;45.644;13.782;2023-08-24T08:22:50;100961.19;;;44.22;23.11
79150;BME280;68563;45.644;13.782;2023-08-24T08:25:16;100962.91;;;42.70;24.50
79150;BME280;68563;45.644;13.782;2023-08-24T08:27:45;100958.19;;;43.33;24.26
79150;BME280;68563;45.644;13.782;2023-08-24T08:30:11;100952.50;;;44.60;22.96
79150;BME280;68563;45.644;13.782;2023-08-24T08:32:37;100948.38;;;44.46;22.07
79150;BME280;68563;45.644;13.782;2023-08-24T08:35:02;100958.22;;;42.96;24.25
79150;BME280;68563;45.644;13.782;2023-08-24T08:37:30;100960.81;;;42.91;24.32
79150;BME280;68563;45.644;13.782;2023-08-24T08:39:57;100961.69;;;44.30;22.13
79150;BME280;68563;45.644;13.782;2023-08-24T08:42:22;100957.28;;;44.53;22.43
79150;BME280;68563;45.644;13.782;2023-08-24T08:44:48;100961.94;;;43.02;23.32
79150;BME280;68563;45.644;13.782;2023-08-24T08:47:15;100975.94;;;41.99;24.67
79150;BME280;68563;45.644;13.782;2023-08-24T08:49:42;100964.00;;;43.49;22.51
79150;BME280;68563;45.644;13.782;2023-08-24T08:52:08;100961.06;;;44.05;21.52
79150;BME280;68563;45.644;13.782;2023-08-24T08:54:34;100971.81;;;42.40;23.51
79150;BME280;68563;45.644;13.782;2023-08-24T08:57:01;100976.47;;;41.44;24.80
79150;BME280;68563;45.644;13.782;2023-08-24T08:59:27;100967.28;;;43.09;22.43
79150;BME280;68563;45.644;13.782;2023-08-24T09:02:01;100972.66;;;43.88;21.00
79150;BME280;68563;45.644;13.782;2023-08-24T09:04:27;100972.63;;;42.41;22.92
79150;BME280;68563;45.644;13.782;2023-08-24T09:06:54;100980.28;;;41.36;24.62
79150;BME280;68563;45.644;13.782;2023-08-24T09:09:21;100970.47;;;42.87;22.21
79150;BME280;68563;45.644;13.782;2023-08-24T09:11:48;100978.41;;;43.98;21.09
79150;BME280;68563;45.644;13.782;2023-08-24T09:14:14;100973.34;;;42.55;22.92
79150;BME280;68563;45.644;13.782;2023-08-24T09:16:41;100981.28;;;41.49;24.00
79150;BME280;68563;45.644;13.782;2023-08-24T09:19:06;100970.53;;;43.17;21.60
79150;BME280;68563;45.644;13.782;2023-08-24T09:21:39;100967.38;;;44.53;20.14
79150;BME280;68563;45.644;13.782;2023-08-24T09:24:07;100971.69;;;42.91;21.70
79150;BME280;68563;45.644;13.782;2023-08-24T09:26:37;100974.81;;;41.75;23.01
79150;BME280;68563;45.644;13.782;2023-08-24T09:29:12;100973.22;;;43.36;20.44
79150;BME280;68563;45.644;13.782;2023-08-24T09:31:42;100978.66;;;44.44;19.58
79150;BME280;68563;45.644;13.782;2023-08-24T09:34:10;100977.28;;;42.96;21.38
79150;BME280;68563;45.644;13.782;2023-08-24T09:36:37;100981.53;;;42.04;22.30
79150;BME280;68563;45.644;13.782;2023-08-24T09:39:04;100974.75;;;43.62;20.95
79150;BME280;68563;45.644;13.782;2023-08-24T09:41:51;100971.06;;;44.58;19.89
79150;BME280;68563;45.644;13.782;2023-08-24T09:44:17;100966.53;;;43.01;21.41
79150;BME280;68563;45.644;13.782;2023-08-24T09:46:43;100974.56;;;42.08;22.89
79150;BME280;68563;45.644;13.782;2023-08-24T09:49:12;100965.44;;;43.82;20.43
79150;BME280;68563;45.644;13.782;2023-08-24T09:51:39;100968.09;;;44.48;20.06
79150;BME280;68563;45.644;13.782;2023-08-24T09:54:07;100972.59;;;42.85;21.67
79150;BME280;68563;45.644;13.782;2023-08-24T09:56:37;100971.00;;;41.83;23.16
79150;BME280;68563;45.644;13.782;2023-08-24T09:59:14;100976.03;;;43.29;21.80
79150;BME280;68563;45.644;13.782;2023-08-24T10:01:44;100967.34;;;43.93;21.67
79150;BME280;68563;45.644;13.782;2023-08-24T10:04:12;100967.28;;;42.28;23.61
79150;BME280;68563;45.644;13.782;2023-08-24T10:06:39;100971.75;;;41.26;25.00
79150;BME280;68563;45.644;13.782;2023-08-24T10:09:07;100966.88;;;42.68;23.87
79150;BME280;68563;45.644;13.782;2023-08-24T10:11:34;100971.09;;;43.80;22.76
79150;BME280;68563;45.644;13.782;2023-08-24T10:14:12;100964.84;;;42.19;25.33
79150;BME280;68563;45.644;13.782;2023-08-24T10:16:39;100972.66;;;41.13;27.14
79150;BME280;68563;45.644;13.782;2023-08-24T10:19:06;100968.75;;;42.74;24.82
79150;BME280;68563;45.644;13.782;2023-08-24T10:21:33;100960.47;;;43.48;23.71
79150;BME280;68563;45.644;13.782;2023-08-24T10:23:59;100972.44;;;41.85;25.78
79150;BME280;68563;45.644;13.782;2023-08-24T10:26:27;100959.34;;;40.84;27.09
79150;BME280;68563;45.644;13.782;2023-08-24T10:28:52;100954.31;;;42.30;24.08
79150;BME280;68563;45.644;13.782;2023-08-24T10:31:19;100943.44;;;43.65;22.83
79150;BME280;68563;45.644;13.782;2023-08-24T10:33:46;100950.31;;;42.07;23.74
79150;BME280;68563;45.644;13.782;2023-08-24T10:36:15;100953.91;;;40.84;25.21
79150;BME280;68563;45.644;13.782;2023-08-24T10:38:42;100946.06;;;42.36;23.91
79150;BME280;68563;45.644;13.782;2023-08-24T10:41:07;100934.69;;;43.87;22.20
79150;BME280;68563;45.644;13.782;2023-08-24T10:43:49;100930.59;;;42.12;24.01
79150;BME280;68563;45.644;13.782;2023-08-24T10:46:15;100938.84;;;41.02;24.79
79150;BME280;68563;45.644;13.782;2023-08-24T10:53:44;100938.00;;;42.30;22.59
79150;BME280;68563;45.644;13.782;2023-08-24T10:56:17;100941.69;;;41.21;24.85
79150;BME280;68563;45.644;13.782;2023-08-24T10:58:47;100939.16;;;42.96;22.93
79150;BME280;68563;45.644;13.782;2023-08-24T11:01:19;100932.97;;;44.16;21.68
79150;BME280;68563;45.644;13.782;2023-08-24T11:03:50;100942.91;;;42.39;23.20
79150;BME280;68563;45.644;13.782;2023-08-24T11:06:23;100938.56;;;41.56;23.60
79150;BME280;68563;45.644;13.782;2023-08-24T11:09:04;100930.66;;;43.04;21.63
79150;BME280;68563;45.644;13.782;2023-08-24T11:11:30;100943.22;;;43.90;20.80
79150;BME280;68563;45.644;13.782;2023-08-24T11:14:16;100938.09;;;42.16;22.39
79150;BME280;68563;45.644;13.782;2023-08-24T11:16:43;100941.91;;;41.58;22.89
79150;BME280;68563;45.644;13.782;2023-08-24T11:19:11;100932.66;;;43.58;20.56
79150;BME280;68563;45.644;13.782;2023-08-24T11:21:38;100933.38;;;43.89;20.24
79150;BME280;68563;45.644;13.782;2023-08-24T11:24:04;100936.03;;;42.37;21.78
79150;BME280;68563;45.644;13.782;2023-08-24T11:26:30;100937.16;;;41.78;22.30
79150;BME280;68563;45.644;13.782;2023-08-24T11:28:56;100931.00;;;43.27;20.60
79150;BME280;68563;45.644;13.782;2023-08-24T11:31:25;100936.50;;;44.05;19.56
79150;BME280;68563;45.644;13.782;2023-08-24T11:33:54;100939.81;;;42.36;21.16
79150;BME280;68563;45.644;13.782;2023-08-24T11:36:20;100931.25;;;41.82;21.44
79150;BME280;68563;45.644;13.782;2023-08-24T11:38:46;100931.63;;;43.41;20.21
79150;BME280;68563;45.644;13.782;2023-08-24T11:41:17;100928.31;;;44.28;19.29
79150;BME280;68563;45.644;13.782;2023-08-24T11:43:43;100928.09;;;42.54;21.27
79150;BME280;68563;45.644;13.782;2023-08-24T11:46:09;100939.00;;;41.53;22.36
79150;BME280;68563;45.644;13.782;2023-08-24T11:48:34;100931.25;;;43.91;19.61
79150;BME280;68563;45.644;13.782;2023-08-24T11:51:02;100928.50;;;44.86;18.46
79150;BME280;68563;45.644;13.782;2023-08-24T11:53:28;100920.94;;;43.09;20.25
79150;BME280;68563;45.644;13.782;2023-08-24T11:55:54;100934.34;;;41.92;21.18
79150;BME280;68563;45.644;13.782;2023-08-24T11:58:20;100926.25;;;43.22;19.44
79150;BME280;68563;45.644;13.782;2023-08-24T12:00:46;100917.63;;;44.39;18.40
79150;BME280;68563;45.644;13.782;2023-08-24T12:03:12;100923.72;;;42.71;20.25
79150;BME280;68563;45.644;13.782;2023-08-24T12:05:38;100919.22;;;41.32;21.69
79150;BME280;68563;45.644;13.782;2023-08-24T12:08:05;100916.75;;;42.94;20.49
79150;BME280;68563;45.644;13.782;2023-08-24T12:10:31;100908.63;;;44.38;17.96
79150;BME280;68563;45.644;13.782;2023-08-24T12:13:06;100905.50;;;42.72;19.79
79150;BME280;68563;45.644;13.782;2023-08-24T12:15:36;100908.13;;;43.28;19.73
79150;BME280;68563;45.644;13.782;2023-08-24T12:18:09;100908.94;;;44.66;17.84
79150;BME280;68563;45.644;13.782;2023-08-24T12:20:35;100910.66;;;45.59;17.11
79150;BME280;68563;45.644;13.782;2023-08-24T12:23:01;100914.63;;;46.02;16.33
79150;BME280;68563;45.644;13.782;2023-08-24T12:25:26;100910.47;;;46.61;15.99
79150;BME280;68563;45.644;13.782;2023-08-24T12:27:53;100913.25;;;46.22;16.04
79150;BME280;68563;45.644;13.782;2023-08-24T12:30:43;100903.25;;;43.84;18.69
79150;BME280;68563;45.644;13.782;2023-08-24T12:33:08;100901.19;;;42.46;20.24
79150;BME280;68563;45.644;13.782;2023-08-24T12:35:33;100897.34;;;43.87;18.36
79150;BME280;68563;45.644;13.782;2023-08-24T12:37:59;100901.38;;;45.14;17.58
79150;BME280;68563;45.644;13.782;2023-08-24T12:40:24;100896.78;;;43.43;18.97
79150;BME280;68563;45.644;13.782;2023-08-24T12:42:50;100887.50;;;42.08;20.15
79150;BME280;68563;45.644;13.782;2023-08-24T12:45:15;100881.97;;;43.39;19.28